Latest Weather Observations for Bushy Park

IDT60801

Issued at 5:02 pm EST Sunday 25 June 2017 (issued every 30 minutes, with the page automatically refreshed every 10 minutes)

About weather observations | Map of weather stations | Latest weather observations for TAS | Other Formats
Station Details ID: 095003 Name: BUSHY PARK (BUSHY PARK ESTATES) Lat: -42.71 Lon: 146.90 Height: 27.0 m
Data from the previous 72 hours. | See also: Recent months at Bushy Park
Date/Time
EST
Temp
°C
App
Temp
°C
Dew
Point
°C
Rel
Hum
%
Delta-T
°C
Wind Press
QNH
hPa
Press
MSL
hPa
Rain since
9am
mm
Dir  Spd
km/h
Gust
km/h
Spd
kts
Gust
kts
25/05:00pm 8.1 3.8 5.2 82 1.3 NNW 17 26 9 14 - - 4.6
25/04:30pm 8.5 4.2 5.4 81 1.4 NNW 17 26 9 14 - - 4.6
25/04:00pm 8.5 5.1 5.9 84 1.2 NNW 13 20 7 11 - - 4.6
25/03:30pm 8.9 6.4 6.5 85 1.1 N 9 15 5 8 - - 4.4
25/03:00pm 8.8 5.5 6.2 84 1.2 NNW 13 24 7 13 - - 3.4
25/02:30pm 9.3 6.4 6.3 81 1.4 NW 11 17 6 9 - - 3.4
25/02:00pm 9.2 7.4 7.3 88 0.9 NNE 6 9 3 5 - - 3.4
25/01:30pm 8.9 6.7 6.1 82 1.3 ESE 7 9 4 5 - - 3.2
25/01:00pm 8.4 5.1 6.2 86 1.0 NW 13 20 7 11 - - 3.0
25/12:30pm 9.1 5.4 6.3 83 1.3 NW 15 24 8 13 - - 1.6
25/12:00pm 9.9 7.5 7.2 83 1.3 W 9 13 5 7 - - 0.4
25/11:30am 11.0 7.7 6.4 73 2.2 NNW 13 20 7 11 - - 0.2
25/11:00am 9.9 6.7 5.3 73 2.1 S 11 13 6 7 - - 0.0
25/10:30am 6.4 3.5 4.8 89 0.7 NNE 9 15 5 8 - - 0.0
25/10:00am 2.9 -0.1 2.1 94 0.3 ENE 7 13 4 7 - - 0.0
25/09:30am 2.2 -0.8 1.7 96 0.2 SW 7 9 4 5 - - 0.0
25/09:00am 0.1 - - - - NNE 6 7 3 4 - - 0.0
25/08:30am -0.3 - - - - SSW 7 11 4 6 - - 0.0
25/08:00am -0.6 - - - - W 9 17 5 9 - - 0.0
25/07:30am -0.9 - - - - NNW 7 9 4 5 - - 0.0
25/07:00am -0.7 - - - - N 6 9 3 5 - - 0.0
25/06:30am -0.8 - - - - N 6 7 3 4 - - 0.0
25/06:00am -1.0 - - - - CALM 0 0 0 0 - - 0.0
25/05:30am -0.6 - - - - CALM 0 0 0 0 - - 0.0
25/05:00am -0.5 - - - - N 2 7 1 4 - - 0.0
25/04:30am -0.5 - - - - CALM 0 0 0 0 - - 0.0
25/04:00am -0.3 - - - - CALM 0 0 0 0 - - 0.0
25/03:30am -0.5 - - - - NNW 2 7 1 4 - - 0.0
25/03:00am -0.3 - - - - NNW 7 9 4 5 - - 0.0
25/02:30am -0.1 - - - - CALM 0 0 0 0 - - 0.0
25/02:00am -0.1 - - - - W 2 7 1 4 - - 0.0
25/01:30am 0.0 - - - - WSW 7 11 4 6 - - 0.0
25/01:00am 0.4 - - - - W 7 13 4 7 - - 0.0
25/12:30am 0.8 -1.9 0.0 94 0.3 NNW 4 9 2 5 - - 0.0
25/12:00am 1.2 -1.9 0.4 94 0.3 W 6 7 3 4 - - 0.0
 
Date/Time
EST
Temp
°C
App
Temp
°C
Dew
Point
°C
Rel
Hum
%
Delta-T
°C
Wind Press
QNH
hPa
Press
MSL
hPa
Rain since
9am
mm
Dir  Spd
km/h
Gust
km/h
Spd
kts
Gust
kts
24/11:30pm 1.3 -1.9 0.5 94 0.3 NW 7 9 4 5 - - 0.0
24/11:00pm 1.6 -1.6 0.8 94 0.3 W 7 11 4 6 - - 0.0
24/10:30pm 1.7 -1.0 0.6 92 0.4 NW 4 7 2 4 - - 0.0
24/10:00pm 3.2 -0.6 1.7 90 0.6 NNW 11 17 6 9 - - 0.0
24/09:30pm 3.7 1.6 1.9 88 0.7 WNW 2 7 1 4 - - 0.0
24/09:00pm 3.5 0.1 2.0 90 0.6 N 9 13 5 7 - - 0.0
24/08:30pm 3.9 1.0 2.4 90 0.6 N 7 7 4 4 - - 0.0
24/08:00pm 4.9 2.1 3.0 87 0.8 NNW 7 11 4 6 - - 0.0
24/07:30pm 5.4 2.1 2.7 83 1.1 NW 9 13 5 7 - - 0.0
24/07:00pm 5.8 1.9 3.2 83 1.1 NW 13 15 7 8 - - 0.0
24/06:30pm 6.2 2.2 3.1 80 1.3 NW 13 17 7 9 - - 0.0
24/06:00pm 6.9 2.9 2.6 74 1.8 WNW 13 19 7 10 - - 0.0
24/05:30pm 6.7 3.1 2.9 77 1.6 NW 11 17 6 9 - - 0.0
24/05:00pm 7.4 3.0 2.7 72 2.0 WNW 15 19 8 10 - - 0.0
24/04:30pm 7.6 3.9 2.4 69 2.2 WNW 11 17 6 9 - - 0.0
24/04:00pm 7.8 3.7 2.0 67 2.4 WNW 13 20 7 11 - - 0.0
24/03:30pm 8.0 3.5 2.3 67 2.4 W 15 24 8 13 - - 0.0
24/03:00pm 8.9 5.5 1.7 60 3.0 WNW 9 15 5 8 - - 0.0
24/02:30pm 9.4 5.3 2.1 60 3.1 WNW 13 20 7 11 - - 0.0
24/02:00pm 9.1 4.9 1.7 60 3.1 W 13 30 7 16 - - 0.0
24/01:30pm 10.4 5.3 0.5 50 4.0 WNW 17 28 9 15 - - 0.0
24/01:00pm 8.6 3.4 0.4 56 3.3 NW 17 26 9 14 - - 0.0
24/12:30pm 9.0 4.1 1.9 61 3.0 NNW 17 26 9 14 - - 0.0
24/12:00pm 9.4 4.8 1.5 58 3.3 NNW 15 22 8 12 - - 0.0
24/11:30am 8.8 3.7 1.0 58 3.2 WNW 17 28 9 15 - - 0.0
24/11:00am 9.2 4.2 1.3 58 3.2 NNW 17 26 9 14 - - 0.0
24/10:30am 8.9 5.2 2.6 64 2.7 NW 11 22 6 12 - - 0.0
24/10:00am 7.9 4.3 2.7 69 2.2 NNW 11 15 6 8 - - 0.0
24/09:30am 5.8 1.6 1.9 76 1.6 NW 13 20 7 11 - - 0.0
24/09:00am 3.4 -0.7 2.1 91 0.5 NW 13 20 7 11 - - 6.2
24/08:30am 2.0 -1.5 1.5 96 0.2 NW 9 15 5 8 - - 6.2
24/08:00am 1.7 -3.0 0.9 94 0.3 NNW 15 17 8 9 - - 6.2
24/07:30am 1.5 -1.7 1.0 96 0.2 N 7 9 4 5 - - 6.2
24/07:00am 2.2 -0.8 1.7 96 0.2 N 7 11 4 6 - - 6.2
24/06:30am 2.5 -0.5 1.7 94 0.3 N 7 11 4 6 - - 6.2
24/06:00am 2.6 0.9 1.8 94 0.3 CALM 0 0 0 0 - - 6.0
24/05:30am 2.4 -1.0 1.6 94 0.3 N 9 13 5 7 - - 5.8
24/05:00am 2.3 -0.6 1.3 93 0.4 N 6 11 3 6 - - 5.6
24/04:30am 1.8 -1.8 0.7 92 0.4 W 9 13 5 7 - - 5.0
24/04:00am 1.4 -1.0 0.0 90 0.5 N 2 7 1 4 - - 5.0
24/03:30am 2.1 -1.1 0.5 89 0.6 W 7 11 4 6 - - 5.0
24/03:00am 1.6 -2.7 0.8 94 0.3 NW 13 20 7 11 - - 5.0
24/02:30am 1.1 -2.5 0.3 94 0.3 NNW 9 11 5 6 - - 5.0
24/02:00am 0.9 -1.9 -0.2 92 0.4 NNE 4 11 2 6 - - 5.0
24/01:30am 1.4 -1.7 0.3 92 0.4 SSE 6 9 3 5 - - 5.0
24/01:00am 2.2 -0.9 1.2 93 0.4 NE 7 11 4 6 - - 5.0
24/12:30am 2.2 -1.7 1.2 93 0.4 N 11 15 6 8 - - 4.8
24/12:00am 2.8 -0.7 1.0 88 0.7 NNW 9 13 5 7 - - 4.8
 
Date/Time
EST
Temp
°C
App
Temp
°C
Dew
Point
°C
Rel
Hum
%
Delta-T
°C
Wind Press
QNH
hPa
Press
MSL
hPa
Rain since
9am
mm
Dir  Spd
km/h
Gust
km/h
Spd
kts
Gust
kts
23/11:30pm 4.1 -0.5 1.6 84 1.0 W 15 24 8 13 - - 4.8
23/11:00pm 4.1 -1.0 0.8 79 1.3 W 17 26 9 14 - - 4.4
23/10:30pm 4.6 -1.1 0.8 76 1.5 WSW 20 30 11 16 - - 4.4
23/10:00pm 4.2 0.4 1.7 84 1.0 WNW 11 20 6 11 - - 4.2
23/09:30pm 4.2 0.3 1.1 80 1.2 W 11 19 6 10 - - 3.8
23/09:00pm 5.0 -1.4 0.9 75 1.6 NW 24 41 13 22 - - 3.6
23/08:52pm 5.5 -1.8 0.1 68 2.1 NW 28 39 15 21 - - 3.6
23/08:30pm 4.6 0.3 1.3 79 1.3 N 13 17 7 9 - - 3.6
23/08:00pm 5.3 1.8 1.3 75 1.6 SSW 9 15 5 8 - - 3.6
23/07:30pm 5.6 1.2 0.2 68 2.1 NNW 13 19 7 10 - - 3.6
23/07:00pm 5.6 1.4 1.6 75 1.6 NNW 13 26 7 14 - - 3.6
23/06:30pm 5.8 0.9 1.9 76 1.6 NNW 17 30 9 16 - - 3.6
23/06:00pm 6.5 2.9 2.9 78 1.5 NW 11 19 6 10 - - 3.6
23/05:30pm 6.8 3.7 3.5 79 1.4 W 9 19 5 10 - - 3.4
23/05:00pm 7.8 0.1 3.4 74 1.9 SW 33 52 18 28 - - 3.4
23/04:47pm 8.5 1.8 3.7 72 2.1 SW 28 54 15 29 - - 3.4
23/04:30pm 9.6 6.3 6.6 81 1.4 W 13 26 7 14 - - 3.0
23/04:00pm 9.8 3.6 6.2 78 1.7 N 28 37 15 20 - - 2.8
23/03:30pm 9.9 3.1 6.7 80 1.5 N 32 41 17 22 - - 2.8
23/03:18pm 9.8 3.8 7.1 83 1.3 N 28 43 15 23 - - 2.8
23/03:00pm 9.7 6.7 7.8 88 0.9 NW 13 20 7 11 - - 2.8
23/02:30pm 10.0 6.2 7.5 84 1.2 WNW 17 28 9 15 - - 2.2
23/02:17pm 11.1 6.7 7.2 77 1.9 WNW 20 56 11 30 - - 1.4
23/02:00pm 13.5 5.0 5.2 57 3.9 NNW 39 57 21 31 - - 0.0
23/01:30pm 13.7 5.2 5.0 55 4.0 NNW 39 61 21 33 - - 0.0
23/01:06pm 14.3 5.5 5.5 55 4.2 NNW 41 59 22 32 - - 0.0
23/01:00pm 14.0 5.2 5.6 57 4.0 N 41 54 22 29 - - 0.0
23/12:30pm 13.2 4.3 5.1 58 3.8 NNW 41 61 22 33 - - 0.0
23/12:01pm 14.1 4.8 5.0 54 4.2 NNW 43 61 23 33 - - 0.0
23/12:00pm 14.0 4.5 5.1 55 4.2 NNW 44 61 24 33 - - 0.0
23/11:45am 14.3 6.0 6.0 57 4.0 NNW 39 63 21 34 - - 0.0
23/11:30am 13.9 6.5 6.7 62 3.5 NNW 35 52 19 28 - - 0.0
23/11:00am 13.1 5.4 5.5 60 3.6 NNW 35 52 19 28 - - 0.0
23/10:44am 14.2 7.8 5.4 55 4.1 NNW 28 52 15 28 - - 0.0
23/10:30am 10.1 5.5 6.3 77 1.8 N 20 35 11 19 - - 0.0
23/10:00am 6.6 4.1 4.8 88 0.8 SE 7 13 4 7 - - 0.0
23/09:30am 4.1 0.6 3.4 95 0.3 S 11 13 6 7 - - 0.0
23/09:00am 2.3 -0.5 2.0 98 0.1 N 6 7 3 4 - - 0.4
23/08:30am 2.4 0.0 1.9 96 0.2 WNW 4 7 2 4 - - 0.4
23/08:00am 1.0 -2.0 0.5 96 0.2 N 6 9 3 5 - - 0.2
23/07:30am 1.2 -2.0 0.7 96 0.2 NW 7 11 4 6 - - 0.2
23/07:00am 0.6 -2.7 0.1 96 0.2 SSW 7 15 4 8 - - 0.2
23/06:30am 0.5 -3.9 0.2 98 0.1 NNW 13 15 7 8 - - 0.2
23/06:00am 0.0 - - - - N 4 9 2 5 - - 0.2
23/05:30am -0.3 - - - - NNE 7 9 4 5 - - 0.2
23/05:00am -0.8 - - - - SW 2 11 1 6 - - 0.2
23/04:30am -1.2 - - - - N 6 9 3 5 - - 0.2
23/04:00am -2.2 - - - - NNW 7 9 4 5 - - 0.2
23/03:30am -2.2 - - - - N 7 9 4 5 - - 0.2
23/03:00am -1.7 - - - - N 7 11 4 6 - - 0.2
23/02:30am -1.8 - - - - NW 7 11 4 6 - - 0.2
23/02:00am -1.3 - - - - N 6 9 3 5 - - 0.2
23/01:30am -0.8 - - - - CALM 0 0 0 0 - - 0.2
23/01:00am -1.0 - - - - N 4 7 2 4 - - 0.2
23/12:30am -0.7 - - - - CALM 0 7 0 4 - - 0.2
23/12:00am -0.3 - - - - S 7 11 4 6 - - 0.2
 
Date/Time
EST
Temp
°C
App
Temp
°C
Dew
Point
°C
Rel
Hum
%
Delta-T
°C
Wind Press
QNH
hPa
Press
MSL
hPa
Rain since
9am
mm
Dir  Spd
km/h
Gust
km/h
Spd
kts
Gust
kts
22/11:30pm -0.4 - - - - CALM 0 6 0 3 - - 0.2
22/11:00pm -0.5 - - - - WSW 9 13 5 7 - - 0.2
22/10:30pm 0.0 - - - - NW 6 7 3 4 - - 0.2
22/10:00pm 0.1 - - - - NNW 4 7 2 4 - - 0.2
22/09:30pm 0.7 -2.6 0.2 96 0.2 NW 7 11 4 6 - - 0.2
22/09:00pm 1.1 -1.2 0.6 96 0.2 SW 2 7 1 4 - - 0.2
22/08:30pm 1.2 -2.5 0.1 92 0.4 S 9 9 5 5 - - 0.2
22/08:00pm 1.2 -2.1 0.4 94 0.3 N 7 9 4 5 - - 0.2
22/07:30pm 2.0 0.2 1.5 96 0.2 CALM 0 0 0 0 - - 0.2
22/07:00pm 2.3 0.5 1.5 94 0.3 CALM 0 0 0 0 - - 0.2
22/06:30pm 2.3 0.5 1.3 93 0.4 CALM 0 0 0 0 - - 0.2
22/06:00pm 2.2 -0.4 1.2 93 0.4 NW 4 7 2 4 - - 0.2
22/05:30pm 2.0 0.1 0.7 91 0.5 CALM 0 0 0 0 - - 0.2

Other Formats:

Comma delimited format used in spreadsheet applications
http://www.bom.gov.au/fwo/IDT60801/IDT60801.94964.axf

JavaScript Object Notation format (JSON) in row-major order
http://www.bom.gov.au/fwo/IDT60801/IDT60801.94964.json